Terminal Aerodrome Forecast
Issued by NWS

Home | Current Version | Previous Version | Text Only | Print | Product List | Glossary On
Versions: 1 2 3 4 5 6 7 8 9 10 11 12 13
000
FTUS45 KGJT 240536
TAFCNY
TAF
KCNY 240536Z 2406/2506 20010KT P6SM VCTS SCT080CB BKN100
      TEMPO 2406/2408 -TSRA BKN080CB
     FM240800 14006KT P6SM SCT100
     FM241600 08004KT P6SM FEW090
     FM242000 30004KT P6SM FEW110
     FM250200 02006KT P6SM FEW250
     FM250300 06006KT P6SM FEW250=

USA.gov is the U.S. government's official web portal to all federal, state and local government web resources and services.